sensor_id;sensor_type;location;lat;lon;timestamp;P1;durP1;ratioP1;P2;durP2;ratioP2
56567;SDS011;42456;49.956;20.004;2022-08-11T00:00:10;12.30;;;5.37;;
56567;SDS011;42456;49.956;20.004;2022-08-11T00:02:46;12.13;;;4.83;;
56567;SDS011;42456;49.956;20.004;2022-08-11T00:05:18;11.53;;;5.12;;
56567;SDS011;42456;49.956;20.004;2022-08-11T00:07:47;13.60;;;5.30;;
56567;SDS011;42456;49.956;20.004;2022-08-11T00:10:23;10.15;;;4.50;;
56567;SDS011;42456;49.956;20.004;2022-08-11T00:12:59;11.35;;;4.62;;
56567;SDS011;42456;49.956;20.004;2022-08-11T00:18:10;11.05;;;4.85;;
56567;SDS011;42456;49.956;20.004;2022-08-11T00:20:39;11.30;;;4.87;;
56567;SDS011;42456;49.956;20.004;2022-08-11T00:25:39;13.00;;;4.58;;
56567;SDS011;42456;49.956;20.004;2022-08-11T00:30:57;15.93;;;5.33;;
56567;SDS011;42456;49.956;20.004;2022-08-11T00:33:31;11.65;;;4.90;;
56567;SDS011;42456;49.956;20.004;2022-08-11T00:36:09;14.63;;;5.25;;
56567;SDS011;42456;49.956;20.004;2022-08-11T00:38:39;16.27;;;5.28;;
56567;SDS011;42456;49.956;20.004;2022-08-11T00:52:49;10.78;;;4.25;;
56567;SDS011;42456;49.956;20.004;2022-08-11T01:48:12;8.83;;;3.67;;
56567;SDS011;42456;49.956;20.004;2022-08-11T01:50:51;10.63;;;4.20;;
56567;SDS011;42456;49.956;20.004;2022-08-11T01:53:46;7.60;;;4.00;;
56567;SDS011;42456;49.956;20.004;2022-08-11T01:59:40;5.25;;;2.90;;
56567;SDS011;42456;49.956;20.004;2022-08-11T02:02:22;8.25;;;4.15;;
56567;SDS011;42456;49.956;20.004;2022-08-11T02:11:14;11.30;;;4.17;;
56567;SDS011;42456;49.956;20.004;2022-08-11T02:14:02;10.68;;;4.00;;
56567;SDS011;42456;49.956;20.004;2022-08-11T02:16:47;9.03;;;3.80;;
56567;SDS011;42456;49.956;20.004;2022-08-11T02:22:50;9.15;;;3.67;;
56567;SDS011;42456;49.956;20.004;2022-08-11T02:37:26;5.40;;;3.15;;
56567;SDS011;42456;49.956;20.004;2022-08-11T02:40:15;7.03;;;3.40;;
56567;SDS011;42456;49.956;20.004;2022-08-11T02:48:07;7.00;;;3.58;;
56567;SDS011;42456;49.956;20.004;2022-08-11T03:02:23;6.03;;;3.05;;
56567;SDS011;42456;49.956;20.004;2022-08-11T03:13:34;6.08;;;3.37;;
56567;SDS011;42456;49.956;20.004;2022-08-11T03:16:40;5.08;;;3.00;;
56567;SDS011;42456;49.956;20.004;2022-08-11T03:19:33;4.47;;;2.83;;
56567;SDS011;42456;49.956;20.004;2022-08-11T03:25:15;6.10;;;3.27;;
56567;SDS011;42456;49.956;20.004;2022-08-11T03:28:03;5.83;;;3.02;;
56567;SDS011;42456;49.956;20.004;2022-08-11T03:30:47;7.33;;;3.50;;
56567;SDS011;42456;49.956;20.004;2022-08-11T03:33:33;3.80;;;3.12;;
56567;SDS011;42456;49.956;20.004;2022-08-11T03:36:25;7.08;;;3.65;;
56567;SDS011;42456;49.956;20.004;2022-08-11T03:41:51;6.85;;;4.10;;
56567;SDS011;42456;49.956;20.004;2022-08-11T03:47:17;6.80;;;3.50;;
56567;SDS011;42456;49.956;20.004;2022-08-11T03:55:45;7.50;;;3.35;;
56567;SDS011;42456;49.956;20.004;2022-08-11T04:30:16;12.07;;;5.22;;
56567;SDS011;42456;49.956;20.004;2022-08-11T04:44:40;6.78;;;4.05;;
56567;SDS011;42456;49.956;20.004;2022-08-11T04:54:06;8.03;;;4.12;;
56567;SDS011;42456;49.956;20.004;2022-08-11T04:57:08;10.85;;;4.80;;
56567;SDS011;42456;49.956;20.004;2022-08-11T05:00:06;8.88;;;4.15;;
56567;SDS011;42456;49.956;20.004;2022-08-11T05:03:02;10.05;;;4.58;;
56567;SDS011;42456;49.956;20.004;2022-08-11T05:06:23;8.38;;;4.12;;
56567;SDS011;42456;49.956;20.004;2022-08-11T05:11:26;10.43;;;4.80;;
56567;SDS011;42456;49.956;20.004;2022-08-11T05:14:18;7.78;;;3.95;;
56567;SDS011;42456;49.956;20.004;2022-08-11T05:16:55;7.17;;;4.10;;
56567;SDS011;42456;49.956;20.004;2022-08-11T05:19:35;8.08;;;4.10;;
56567;SDS011;42456;49.956;20.004;2022-08-11T05:22:16;8.88;;;4.70;;
56567;SDS011;42456;49.956;20.004;2022-08-11T05:25:05;10.43;;;4.35;;
56567;SDS011;42456;49.956;20.004;2022-08-11T05:30:35;10.23;;;3.90;;
56567;SDS011;42456;49.956;20.004;2022-08-11T05:33:23;9.53;;;3.83;;
56567;SDS011;42456;49.956;20.004;2022-08-11T05:36:26;6.22;;;3.77;;
56567;SDS011;42456;49.956;20.004;2022-08-11T05:39:14;7.35;;;3.62;;
56567;SDS011;42456;49.956;20.004;2022-08-11T05:42:02;9.25;;;3.60;;
56567;SDS011;42456;49.956;20.004;2022-08-11T05:44:46;7.80;;;3.67;;
56567;SDS011;42456;49.956;20.004;2022-08-11T05:47:28;6.90;;;3.70;;
56567;SDS011;42456;49.956;20.004;2022-08-11T05:50:14;7.53;;;3.45;;
56567;SDS011;42456;49.956;20.004;2022-08-11T05:52:52;9.00;;;3.60;;
56567;SDS011;42456;49.956;20.004;2022-08-11T05:55:35;8.03;;;3.40;;
56567;SDS011;42456;49.956;20.004;2022-08-11T05:58:20;10.48;;;3.45;;
56567;SDS011;42456;49.956;20.004;2022-08-11T06:00:47;11.30;;;3.60;;
56567;SDS011;42456;49.956;20.004;2022-08-11T06:03:28;7.45;;;3.62;;
56567;SDS011;42456;49.956;20.004;2022-08-11T06:05:53;7.83;;;3.80;;
56567;SDS011;42456;49.956;20.004;2022-08-11T06:08:26;6.83;;;3.27;;
56567;SDS011;42456;49.956;20.004;2022-08-11T06:10:59;7.42;;;3.25;;
56567;SDS011;42456;49.956;20.004;2022-08-11T06:13:28;9.00;;;3.37;;
56567;SDS011;42456;49.956;20.004;2022-08-11T06:15:56;7.30;;;3.33;;
56567;SDS011;42456;49.956;20.004;2022-08-11T06:18:23;5.83;;;3.05;;
56567;SDS011;42456;49.956;20.004;2022-08-11T06:20:52;4.42;;;2.83;;
56567;SDS011;42456;49.956;20.004;2022-08-11T06:23:21;5.70;;;3.30;;
56567;SDS011;42456;49.956;20.004;2022-08-11T06:25:54;8.48;;;3.33;;
56567;SDS011;42456;49.956;20.004;2022-08-11T06:30:48;8.45;;;3.35;;
56567;SDS011;42456;49.956;20.004;2022-08-11T06:33:17;7.87;;;3.58;;
56567;SDS011;42456;49.956;20.004;2022-08-11T06:41:32;7.00;;;3.15;;
56567;SDS011;42456;49.956;20.004;2022-08-11T06:46:49;4.55;;;2.83;;
56567;SDS011;42456;49.956;20.004;2022-08-11T06:49:19;9.30;;;3.08;;
56567;SDS011;42456;49.956;20.004;2022-08-11T06:52:05;6.47;;;2.72;;
56567;SDS011;42456;49.956;20.004;2022-08-11T06:54:38;6.20;;;2.62;;
56567;SDS011;42456;49.956;20.004;2022-08-11T06:57:12;7.03;;;2.90;;
56567;SDS011;42456;49.956;20.004;2022-08-11T06:59:52;6.08;;;2.67;;
56567;SDS011;42456;49.956;20.004;2022-08-11T07:02:33;4.62;;;2.80;;
56567;SDS011;42456;49.956;20.004;2022-08-11T07:05:23;4.00;;;2.75;;
56567;SDS011;42456;49.956;20.004;2022-08-11T07:14:06;8.23;;;2.75;;
56567;SDS011;42456;49.956;20.004;2022-08-11T07:16:47;4.30;;;2.50;;
56567;SDS011;42456;49.956;20.004;2022-08-11T07:19:16;4.92;;;2.42;;
56567;SDS011;42456;49.956;20.004;2022-08-11T07:21:59;4.08;;;2.47;;
56567;SDS011;42456;49.956;20.004;2022-08-11T07:24:48;4.87;;;2.50;;
56567;SDS011;42456;49.956;20.004;2022-08-11T07:30:38;4.65;;;2.40;;
56567;SDS011;42456;49.956;20.004;2022-08-11T07:33:06;4.25;;;2.50;;
56567;SDS011;42456;49.956;20.004;2022-08-11T07:35:37;5.15;;;2.62;;
56567;SDS011;42456;49.956;20.004;2022-08-11T07:38:11;6.42;;;2.52;;
56567;SDS011;42456;49.956;20.004;2022-08-11T07:40:41;4.30;;;2.33;;
56567;SDS011;42456;49.956;20.004;2022-08-11T07:43:10;5.55;;;2.30;;
56567;SDS011;42456;49.956;20.004;2022-08-11T07:45:44;5.85;;;2.40;;
56567;SDS011;42456;49.956;20.004;2022-08-11T07:48:25;6.35;;;2.60;;
56567;SDS011;42456;49.956;20.004;2022-08-11T07:51:06;5.20;;;2.37;;
56567;SDS011;42456;49.956;20.004;2022-08-11T07:53:47;5.70;;;2.47;;
56567;SDS011;42456;49.956;20.004;2022-08-11T07:56:17;4.53;;;2.87;;
56567;SDS011;42456;49.956;20.004;2022-08-11T07:58:44;2.83;;;2.20;;
56567;SDS011;42456;49.956;20.004;2022-08-11T08:01:24;3.83;;;1.95;;
56567;SDS011;42456;49.956;20.004;2022-08-11T08:04:06;3.00;;;2.30;;
56567;SDS011;42456;49.956;20.004;2022-08-11T08:06:50;5.55;;;2.62;;
56567;SDS011;42456;49.956;20.004;2022-08-11T08:09:32;6.17;;;2.40;;
56567;SDS011;42456;49.956;20.004;2022-08-11T08:12:13;5.22;;;2.20;;
56567;SDS011;42456;49.956;20.004;2022-08-11T08:14:54;5.05;;;2.05;;
56567;SDS011;42456;49.956;20.004;2022-08-11T08:17:36;11.05;;;2.40;;
56567;SDS011;42456;49.956;20.004;2022-08-11T08:20:19;4.58;;;2.52;;
56567;SDS011;42456;49.956;20.004;2022-08-11T08:22:50;6.00;;;2.50;;
56567;SDS011;42456;49.956;20.004;2022-08-11T08:25:34;3.70;;;2.40;;
56567;SDS011;42456;49.956;20.004;2022-08-11T08:28:03;4.85;;;2.67;;
56567;SDS011;42456;49.956;20.004;2022-08-11T08:30:31;9.35;;;2.45;;
56567;SDS011;42456;49.956;20.004;2022-08-11T08:33:22;3.27;;;2.15;;
56567;SDS011;42456;49.956;20.004;2022-08-11T08:36:00;10.78;;;2.70;;
56567;SDS011;42456;49.956;20.004;2022-08-11T08:38:39;3.10;;;2.40;;
56567;SDS011;42456;49.956;20.004;2022-08-11T08:41:15;6.08;;;2.40;;
56567;SDS011;42456;49.956;20.004;2022-08-11T08:43:47;5.15;;;2.10;;
56567;SDS011;42456;49.956;20.004;2022-08-11T08:46:18;4.80;;;2.20;;
56567;SDS011;42456;49.956;20.004;2022-08-11T08:48:47;4.00;;;2.20;;
56567;SDS011;42456;49.956;20.004;2022-08-11T08:51:14;5.67;;;2.20;;
56567;SDS011;42456;49.956;20.004;2022-08-11T08:53:57;3.33;;;2.20;;
56567;SDS011;42456;49.956;20.004;2022-08-11T08:56:27;3.17;;;2.08;;
56567;SDS011;42456;49.956;20.004;2022-08-11T08:58:54;2.40;;;2.05;;
56567;SDS011;42456;49.956;20.004;2022-08-11T09:01:24;3.98;;;2.10;;
56567;SDS011;42456;49.956;20.004;2022-08-11T09:03:55;4.62;;;2.25;;
56567;SDS011;42456;49.956;20.004;2022-08-11T09:06:22;4.12;;;1.87;;
56567;SDS011;42456;49.956;20.004;2022-08-11T09:08:49;3.30;;;1.72;;
56567;SDS011;42456;49.956;20.004;2022-08-11T09:11:18;2.55;;;2.12;;
56567;SDS011;42456;49.956;20.004;2022-08-11T09:14:00;3.33;;;2.00;;
56567;SDS011;42456;49.956;20.004;2022-08-11T09:16:28;2.55;;;2.17;;
56567;SDS011;42456;49.956;20.004;2022-08-11T09:18:59;2.00;;;1.90;;
56567;SDS011;42456;49.956;20.004;2022-08-11T09:21:26;2.12;;;1.72;;
56567;SDS011;42456;49.956;20.004;2022-08-11T09:23:52;3.60;;;2.02;;
56567;SDS011;42456;49.956;20.004;2022-08-11T09:26:34;2.77;;;2.10;;
56567;SDS011;42456;49.956;20.004;2022-08-11T09:29:12;3.85;;;1.85;;
56567;SDS011;42456;49.956;20.004;2022-08-11T09:31:39;3.12;;;1.90;;
56567;SDS011;42456;49.956;20.004;2022-08-11T09:34:08;2.35;;;1.85;;
56567;SDS011;42456;49.956;20.004;2022-08-11T09:36:36;2.90;;;1.92;;
56567;SDS011;42456;49.956;20.004;2022-08-11T09:39:18;2.75;;;1.80;;
56567;SDS011;42456;49.956;20.004;2022-08-11T09:41:59;4.85;;;1.98;;
56567;SDS011;42456;49.956;20.004;2022-08-11T09:44:32;5.62;;;1.75;;
56567;SDS011;42456;49.956;20.004;2022-08-11T09:47:16;1.52;;;1.42;;
56567;SDS011;42456;49.956;20.004;2022-08-11T09:49:50;8.35;;;4.30;;
56567;SDS011;42456;49.956;20.004;2022-08-11T09:52:25;5.53;;;2.00;;
56567;SDS011;42456;49.956;20.004;2022-08-11T09:54:54;2.83;;;1.98;;
56567;SDS011;42456;49.956;20.004;2022-08-11T09:57:21;3.00;;;1.80;;
56567;SDS011;42456;49.956;20.004;2022-08-11T10:00:02;3.50;;;2.15;;
56567;SDS011;42456;49.956;20.004;2022-08-11T10:02:32;1.90;;;1.80;;
56567;SDS011;42456;49.956;20.004;2022-08-11T10:04:59;5.93;;;3.23;;
56567;SDS011;42456;49.956;20.004;2022-08-11T10:07:41;8.00;;;3.45;;
56567;SDS011;42456;49.956;20.004;2022-08-11T10:10:12;4.30;;;2.20;;
56567;SDS011;42456;49.956;20.004;2022-08-11T10:12:40;3.70;;;2.35;;
56567;SDS011;42456;49.956;20.004;2022-08-11T10:15:11;5.70;;;3.35;;
56567;SDS011;42456;49.956;20.004;2022-08-11T10:17:59;9.28;;;4.72;;
56567;SDS011;42456;49.956;20.004;2022-08-11T10:23:13;5.55;;;2.60;;
56567;SDS011;42456;49.956;20.004;2022-08-11T10:25:53;4.05;;;1.77;;
56567;SDS011;42456;49.956;20.004;2022-08-11T10:28:34;3.33;;;1.98;;
56567;SDS011;42456;49.956;20.004;2022-08-11T10:31:02;4.83;;;2.02;;
56567;SDS011;42456;49.956;20.004;2022-08-11T10:33:43;8.20;;;4.12;;
56567;SDS011;42456;49.956;20.004;2022-08-11T10:36:30;3.15;;;2.12;;
56567;SDS011;42456;49.956;20.004;2022-08-11T10:38:58;2.95;;;1.60;;
56567;SDS011;42456;49.956;20.004;2022-08-11T10:41:25;1.92;;;1.50;;
56567;SDS011;42456;49.956;20.004;2022-08-11T10:44:06;3.20;;;1.80;;
56567;SDS011;42456;49.956;20.004;2022-08-11T10:46:35;3.83;;;2.00;;
56567;SDS011;42456;49.956;20.004;2022-08-11T10:49:17;1.95;;;1.55;;
56567;SDS011;42456;49.956;20.004;2022-08-11T10:51:45;2.50;;;1.50;;
56567;SDS011;42456;49.956;20.004;2022-08-11T10:54:25;3.92;;;1.70;;
56567;SDS011;42456;49.956;20.004;2022-08-11T10:57:07;3.45;;;1.70;;
56567;SDS011;42456;49.956;20.004;2022-08-11T10:59:48;2.50;;;1.60;;
56567;SDS011;42456;49.956;20.004;2022-08-11T11:02:14;2.87;;;1.40;;
56567;SDS011;42456;49.956;20.004;2022-08-11T11:07:26;1.85;;;1.45;;
56567;SDS011;42456;49.956;20.004;2022-08-11T11:10:05;3.58;;;1.50;;
56567;SDS011;42456;49.956;20.004;2022-08-11T11:12:41;3.87;;;1.67;;
56567;SDS011;42456;49.956;20.004;2022-08-11T11:15:23;3.95;;;1.60;;
56567;SDS011;42456;49.956;20.004;2022-08-11T11:18:08;3.92;;;1.45;;
56567;SDS011;42456;49.956;20.004;2022-08-11T11:20:55;2.92;;;1.80;;
56567;SDS011;42456;49.956;20.004;2022-08-11T11:28:56;1.82;;;1.70;;
56567;SDS011;42456;49.956;20.004;2022-08-11T11:37:13;2.72;;;1.30;;
56567;SDS011;42456;49.956;20.004;2022-08-11T11:39:41;2.20;;;1.50;;
56567;SDS011;42456;49.956;20.004;2022-08-11T11:42:09;2.67;;;1.40;;
56567;SDS011;42456;49.956;20.004;2022-08-11T11:44:37;2.58;;;1.40;;
56567;SDS011;42456;49.956;20.004;2022-08-11T11:47:04;1.37;;;1.27;;
56567;SDS011;42456;49.956;20.004;2022-08-11T11:49:31;3.67;;;1.47;;
56567;SDS011;42456;49.956;20.004;2022-08-11T11:52:00;3.12;;;1.60;;
56567;SDS011;42456;49.956;20.004;2022-08-11T11:54:26;2.98;;;1.30;;
56567;SDS011;42456;49.956;20.004;2022-08-11T11:56:57;3.52;;;1.50;;
56567;SDS011;42456;49.956;20.004;2022-08-11T11:59:28;4.35;;;2.40;;
56567;SDS011;42456;49.956;20.004;2022-08-11T12:02:04;4.20;;;2.30;;
56567;SDS011;42456;49.956;20.004;2022-08-11T12:04:33;4.08;;;2.20;;
56567;SDS011;42456;49.956;20.004;2022-08-11T12:07:02;3.42;;;1.95;;
56567;SDS011;42456;49.956;20.004;2022-08-11T12:09:44;6.28;;;2.10;;
56567;SDS011;42456;49.956;20.004;2022-08-11T12:12:12;2.43;;;1.93;;
56567;SDS011;42456;49.956;20.004;2022-08-11T12:14:53;3.58;;;1.95;;
56567;SDS011;42456;49.956;20.004;2022-08-11T12:17:19;1.98;;;1.70;;
56567;SDS011;42456;49.956;20.004;2022-08-11T12:19:48;3.05;;;1.98;;
56567;SDS011;42456;49.956;20.004;2022-08-11T12:22:15;2.08;;;1.70;;
56567;SDS011;42456;49.956;20.004;2022-08-11T12:24:55;1.92;;;1.40;;
56567;SDS011;42456;49.956;20.004;2022-08-11T12:27:35;5.00;;;1.67;;
56567;SDS011;42456;49.956;20.004;2022-08-11T12:30:04;4.37;;;1.72;;
56567;SDS011;42456;49.956;20.004;2022-08-11T12:32:33;3.75;;;1.65;;
56567;SDS011;42456;49.956;20.004;2022-08-11T12:35:02;2.10;;;1.40;;
56567;SDS011;42456;49.956;20.004;2022-08-11T12:37:34;2.22;;;1.65;;
56567;SDS011;42456;49.956;20.004;2022-08-11T12:40:11;2.55;;;1.72;;
56567;SDS011;42456;49.956;20.004;2022-08-11T12:42:54;3.40;;;1.62;;
56567;SDS011;42456;49.956;20.004;2022-08-11T12:45:38;2.30;;;1.30;;
56567;SDS011;42456;49.956;20.004;2022-08-11T12:48:07;1.42;;;1.32;;
56567;SDS011;42456;49.956;20.004;2022-08-11T12:50:55;1.60;;;1.30;;
56567;SDS011;42456;49.956;20.004;2022-08-11T12:53:50;1.30;;;0.93;;
56567;SDS011;42456;49.956;20.004;2022-08-11T12:56:27;3.90;;;1.72;;
56567;SDS011;42456;49.956;20.004;2022-08-11T12:59:10;5.42;;;1.20;;
56567;SDS011;42456;49.956;20.004;2022-08-11T13:01:52;4.22;;;1.70;;
56567;SDS011;42456;49.956;20.004;2022-08-11T13:04:33;3.37;;;1.42;;
56567;SDS011;42456;49.956;20.004;2022-08-11T13:07:14;5.08;;;1.77;;
56567;SDS011;42456;49.956;20.004;2022-08-11T13:09:42;2.98;;;2.15;;
56567;SDS011;42456;49.956;20.004;2022-08-11T13:12:10;4.12;;;1.62;;
56567;SDS011;42456;49.956;20.004;2022-08-11T13:14:50;3.47;;;1.70;;
56567;SDS011;42456;49.956;20.004;2022-08-11T13:17:16;2.67;;;1.60;;
56567;SDS011;42456;49.956;20.004;2022-08-11T13:19:47;4.83;;;2.05;;
56567;SDS011;42456;49.956;20.004;2022-08-11T13:22:15;5.28;;;2.25;;
56567;SDS011;42456;49.956;20.004;2022-08-11T13:24:43;3.70;;;1.90;;
56567;SDS011;42456;49.956;20.004;2022-08-11T13:27:10;3.35;;;1.60;;
56567;SDS011;42456;49.956;20.004;2022-08-11T13:29:36;5.20;;;2.10;;
56567;SDS011;42456;49.956;20.004;2022-08-11T13:32:06;3.02;;;1.62;;
56567;SDS011;42456;49.956;20.004;2022-08-11T13:34:33;3.02;;;1.40;;
56567;SDS011;42456;49.956;20.004;2022-08-11T13:37:02;3.92;;;1.60;;
56567;SDS011;42456;49.956;20.004;2022-08-11T13:39:30;3.17;;;1.50;;
56567;SDS011;42456;49.956;20.004;2022-08-11T13:44:27;4.08;;;1.20;;
56567;SDS011;42456;49.956;20.004;2022-08-11T13:47:02;4.15;;;1.80;;
56567;SDS011;42456;49.956;20.004;2022-08-11T13:49:34;2.85;;;1.92;;
56567;SDS011;42456;49.956;20.004;2022-08-11T13:52:02;5.70;;;3.70;;
56567;SDS011;42456;49.956;20.004;2022-08-11T13:54:31;18.40;;;10.23;;
56567;SDS011;42456;49.956;20.004;2022-08-11T13:57:07;8.25;;;4.10;;
56567;SDS011;42456;49.956;20.004;2022-08-11T13:59:33;8.23;;;3.58;;
56567;SDS011;42456;49.956;20.004;2022-08-11T14:02:00;6.45;;;3.27;;
56567;SDS011;42456;49.956;20.004;2022-08-11T14:07:19;4.60;;;1.90;;
56567;SDS011;42456;49.956;20.004;2022-08-11T14:09:47;4.03;;;1.67;;
56567;SDS011;42456;49.956;20.004;2022-08-11T14:12:24;4.62;;;2.27;;
56567;SDS011;42456;49.956;20.004;2022-08-11T14:17:55;4.78;;;1.92;;
56567;SDS011;42456;49.956;20.004;2022-08-11T14:20:30;3.85;;;2.02;;
56567;SDS011;42456;49.956;20.004;2022-08-11T14:23:13;2.12;;;1.45;;
56567;SDS011;42456;49.956;20.004;2022-08-11T14:25:41;3.55;;;1.62;;
56567;SDS011;42456;49.956;20.004;2022-08-11T14:28:10;4.08;;;2.50;;
56567;SDS011;42456;49.956;20.004;2022-08-11T14:30:36;3.87;;;1.87;;
56567;SDS011;42456;49.956;20.004;2022-08-11T14:33:15;4.00;;;1.70;;
56567;SDS011;42456;49.956;20.004;2022-08-11T14:35:41;5.22;;;1.70;;
56567;SDS011;42456;49.956;20.004;2022-08-11T14:38:08;2.47;;;1.72;;
56567;SDS011;42456;49.956;20.004;2022-08-11T14:40:34;5.70;;;2.20;;
56567;SDS011;42456;49.956;20.004;2022-08-11T14:43:14;5.10;;;1.95;;
56567;SDS011;42456;49.956;20.004;2022-08-11T14:45:54;3.70;;;1.80;;
56567;SDS011;42456;49.956;20.004;2022-08-11T14:48:36;5.65;;;2.08;;
56567;SDS011;42456;49.956;20.004;2022-08-11T14:51:03;6.58;;;2.50;;
56567;SDS011;42456;49.956;20.004;2022-08-11T14:53:30;4.97;;;1.95;;
56567;SDS011;42456;49.956;20.004;2022-08-11T14:55:57;4.28;;;2.10;;
56567;SDS011;42456;49.956;20.004;2022-08-11T14:58:39;7.58;;;3.05;;
56567;SDS011;42456;49.956;20.004;2022-08-11T15:01:07;9.23;;;4.03;;
56567;SDS011;42456;49.956;20.004;2022-08-11T15:03:36;6.78;;;2.27;;
56567;SDS011;42456;49.956;20.004;2022-08-11T15:06:02;4.87;;;2.15;;
56567;SDS011;42456;49.956;20.004;2022-08-11T15:08:30;5.35;;;2.30;;
56567;SDS011;42456;49.956;20.004;2022-08-11T15:11:13;5.50;;;2.33;;
56567;SDS011;42456;49.956;20.004;2022-08-11T15:13:56;4.33;;;1.77;;
56567;SDS011;42456;49.956;20.004;2022-08-11T15:16:25;7.22;;;2.55;;
56567;SDS011;42456;49.956;20.004;2022-08-11T15:19:06;2.72;;;2.00;;
56567;SDS011;42456;49.956;20.004;2022-08-11T15:21:33;3.30;;;1.75;;
56567;SDS011;42456;49.956;20.004;2022-08-11T15:24:13;6.08;;;2.35;;
56567;SDS011;42456;49.956;20.004;2022-08-11T15:26:44;4.22;;;1.87;;
56567;SDS011;42456;49.956;20.004;2022-08-11T15:29:27;3.60;;;2.45;;
56567;SDS011;42456;49.956;20.004;2022-08-11T15:32:10;6.12;;;3.20;;
56567;SDS011;42456;49.956;20.004;2022-08-11T15:34:57;2.33;;;1.87;;
56567;SDS011;42456;49.956;20.004;2022-08-11T15:37:40;3.60;;;2.10;;
56567;SDS011;42456;49.956;20.004;2022-08-11T15:40:17;6.42;;;2.30;;
56567;SDS011;42456;49.956;20.004;2022-08-11T15:43:09;7.10;;;2.80;;
56567;SDS011;42456;49.956;20.004;2022-08-11T15:46:02;5.70;;;2.90;;
56567;SDS011;42456;49.956;20.004;2022-08-11T15:54:24;6.12;;;3.00;;
56567;SDS011;42456;49.956;20.004;2022-08-11T15:56:55;5.22;;;2.25;;
56567;SDS011;42456;49.956;20.004;2022-08-11T15:59:25;3.25;;;2.12;;
56567;SDS011;42456;49.956;20.004;2022-08-11T16:02:11;6.60;;;3.00;;
56567;SDS011;42456;49.956;20.004;2022-08-11T16:04:49;5.60;;;2.20;;
56567;SDS011;42456;49.956;20.004;2022-08-11T16:07:21;6.80;;;2.40;;
56567;SDS011;42456;49.956;20.004;2022-08-11T16:09:52;5.35;;;2.72;;
56567;SDS011;42456;49.956;20.004;2022-08-11T16:12:38;6.97;;;2.80;;
56567;SDS011;42456;49.956;20.004;2022-08-11T16:15:09;5.72;;;2.35;;
56567;SDS011;42456;49.956;20.004;2022-08-11T16:17:51;3.45;;;2.08;;
56567;SDS011;42456;49.956;20.004;2022-08-11T16:20:25;3.17;;;2.10;;
56567;SDS011;42456;49.956;20.004;2022-08-11T16:22:58;4.67;;;1.72;;
56567;SDS011;42456;49.956;20.004;2022-08-11T16:25:28;4.12;;;1.90;;
56567;SDS011;42456;49.956;20.004;2022-08-11T16:28:01;4.58;;;1.90;;
56567;SDS011;42456;49.956;20.004;2022-08-11T16:30:36;1.80;;;1.70;;
56567;SDS011;42456;49.956;20.004;2022-08-11T16:33:07;5.92;;;1.72;;
56567;SDS011;42456;49.956;20.004;2022-08-11T16:35:36;6.15;;;2.05;;
56567;SDS011;42456;49.956;20.004;2022-08-11T16:38:17;3.60;;;1.80;;
56567;SDS011;42456;49.956;20.004;2022-08-11T16:41:00;1.85;;;1.62;;
56567;SDS011;42456;49.956;20.004;2022-08-11T16:43:31;2.02;;;1.72;;
56567;SDS011;42456;49.956;20.004;2022-08-11T16:46:15;5.35;;;2.00;;
56567;SDS011;42456;49.956;20.004;2022-08-11T16:48:58;2.83;;;1.85;;
56567;SDS011;42456;49.956;20.004;2022-08-11T16:51:29;2.27;;;2.02;;
56567;SDS011;42456;49.956;20.004;2022-08-11T16:53:56;2.67;;;1.98;;
56567;SDS011;42456;49.956;20.004;2022-08-11T16:57:06;1.80;;;1.52;;
56567;SDS011;42456;49.956;20.004;2022-08-11T16:59:01;5.60;;;1.98;;
56567;SDS011;42456;49.956;20.004;2022-08-11T17:02:01;2.85;;;2.20;;
56567;SDS011;42456;49.956;20.004;2022-08-11T17:04:29;3.40;;;1.95;;
56567;SDS011;42456;49.956;20.004;2022-08-11T17:07:27;3.00;;;2.17;;
56567;SDS011;42456;49.956;20.004;2022-08-11T17:13:15;6.95;;;2.87;;
56567;SDS011;42456;49.956;20.004;2022-08-11T17:15:47;2.22;;;2.02;;
56567;SDS011;42456;49.956;20.004;2022-08-11T17:18:30;4.83;;;2.27;;
56567;SDS011;42456;49.956;20.004;2022-08-11T17:23:52;6.55;;;2.55;;
56567;SDS011;42456;49.956;20.004;2022-08-11T17:29:32;5.20;;;2.45;;
56567;SDS011;42456;49.956;20.004;2022-08-11T17:32:18;3.47;;;2.42;;
56567;SDS011;42456;49.956;20.004;2022-08-11T17:35:10;5.08;;;2.15;;
56567;SDS011;42456;49.956;20.004;2022-08-11T17:37:50;5.47;;;2.27;;
56567;SDS011;42456;49.956;20.004;2022-08-11T17:40:20;2.20;;;2.00;;
56567;SDS011;42456;49.956;20.004;2022-08-11T17:45:34;4.30;;;2.45;;
56567;SDS011;42456;49.956;20.004;2022-08-11T17:48:18;2.20;;;2.00;;
56567;SDS011;42456;49.956;20.004;2022-08-11T17:50:58;3.10;;;2.22;;
56567;SDS011;42456;49.956;20.004;2022-08-11T17:53:28;4.55;;;2.22;;
56567;SDS011;42456;49.956;20.004;2022-08-11T17:56:13;3.52;;;2.17;;
56567;SDS011;42456;49.956;20.004;2022-08-11T17:58:56;3.58;;;2.30;;
56567;SDS011;42456;49.956;20.004;2022-08-11T18:01:38;2.90;;;2.10;;
56567;SDS011;42456;49.956;20.004;2022-08-11T18:04:06;4.67;;;2.30;;
56567;SDS011;42456;49.956;20.004;2022-08-11T18:06:37;2.65;;;2.42;;
56567;SDS011;42456;49.956;20.004;2022-08-11T18:09:09;3.52;;;2.17;;
56567;SDS011;42456;49.956;20.004;2022-08-11T18:11:49;7.03;;;2.33;;
56567;SDS011;42456;49.956;20.004;2022-08-11T18:14:32;4.15;;;2.15;;
56567;SDS011;42456;49.956;20.004;2022-08-11T18:17:15;2.50;;;2.30;;
56567;SDS011;42456;49.956;20.004;2022-08-11T18:19:56;3.08;;;2.10;;
56567;SDS011;42456;49.956;20.004;2022-08-11T18:22:36;4.47;;;2.58;;
56567;SDS011;42456;49.956;20.004;2022-08-11T18:25:20;4.83;;;2.47;;
56567;SDS011;42456;49.956;20.004;2022-08-11T18:28:27;3.67;;;2.42;;
56567;SDS011;42456;49.956;20.004;2022-08-11T18:31:04;6.72;;;2.55;;
56567;SDS011;42456;49.956;20.004;2022-08-11T18:33:52;2.50;;;2.30;;
56567;SDS011;42456;49.956;20.004;2022-08-11T18:36:36;2.70;;;2.37;;
56567;SDS011;42456;49.956;20.004;2022-08-11T18:39:21;4.10;;;2.02;;
56567;SDS011;42456;49.956;20.004;2022-08-11T18:42:05;4.22;;;2.42;;
56567;SDS011;42456;49.956;20.004;2022-08-11T18:44:49;2.42;;;2.20;;
56567;SDS011;42456;49.956;20.004;2022-08-11T18:47:30;3.05;;;2.25;;
56567;SDS011;42456;49.956;20.004;2022-08-11T18:50:11;4.17;;;2.47;;
56567;SDS011;42456;49.956;20.004;2022-08-11T18:52:53;2.45;;;2.08;;
56567;SDS011;42456;49.956;20.004;2022-08-11T18:55:34;3.27;;;2.25;;
56567;SDS011;42456;49.956;20.004;2022-08-11T18:58:15;3.75;;;2.30;;
56567;SDS011;42456;49.956;20.004;2022-08-11T19:00:59;2.45;;;2.20;;
56567;SDS011;42456;49.956;20.004;2022-08-11T19:03:41;3.45;;;2.27;;
56567;SDS011;42456;49.956;20.004;2022-08-11T19:06:23;2.95;;;2.30;;
56567;SDS011;42456;49.956;20.004;2022-08-11T19:09:06;7.75;;;3.92;;
56567;SDS011;42456;49.956;20.004;2022-08-11T19:11:49;5.75;;;3.17;;
56567;SDS011;42456;49.956;20.004;2022-08-11T19:14:31;4.47;;;3.15;;
56567;SDS011;42456;49.956;20.004;2022-08-11T19:17:13;4.15;;;2.60;;
56567;SDS011;42456;49.956;20.004;2022-08-11T19:19:55;4.53;;;2.47;;
56567;SDS011;42456;49.956;20.004;2022-08-11T19:22:36;3.72;;;2.37;;
56567;SDS011;42456;49.956;20.004;2022-08-11T19:25:16;4.03;;;2.42;;
56567;SDS011;42456;49.956;20.004;2022-08-11T19:27:59;6.33;;;2.47;;
56567;SDS011;42456;49.956;20.004;2022-08-11T19:30:42;6.20;;;2.47;;
56567;SDS011;42456;49.956;20.004;2022-08-11T19:33:23;2.47;;;2.27;;
56567;SDS011;42456;49.956;20.004;2022-08-11T19:36:04;3.55;;;2.42;;
56567;SDS011;42456;49.956;20.004;2022-08-11T19:38:45;4.10;;;2.20;;
56567;SDS011;42456;49.956;20.004;2022-08-11T19:41:26;4.03;;;2.30;;
56567;SDS011;42456;49.956;20.004;2022-08-11T19:44:08;2.90;;;2.20;;